sensor_id;sensor_type;location;lat;lon;timestamp;pressure;altitude;pressure_sealevel;temperature;humidity
46836;BME280;32573;51.290;6.926;2022-12-18T00:01:34;101416.63;;;-3.16;100.00
46836;BME280;32573;51.290;6.926;2022-12-18T00:04:16;101417.50;;;-3.16;100.00
46836;BME280;32573;51.290;6.926;2022-12-18T00:06:47;101408.19;;;-3.15;100.00
46836;BME280;32573;51.290;6.926;2022-12-18T00:09:18;101402.16;;;-3.16;100.00
46836;BME280;32573;51.290;6.926;2022-12-18T00:11:51;101414.78;;;-3.17;100.00
46836;BME280;32573;51.290;6.926;2022-12-18T00:14:21;101416.63;;;-3.16;100.00
46836;BME280;32573;51.290;6.926;2022-12-18T00:16:50;101409.66;;;-3.17;100.00
46836;BME280;32573;51.290;6.926;2022-12-18T00:19:26;101426.84;;;-3.16;100.00
46836;BME280;32573;51.290;6.926;2022-12-18T00:21:55;101419.19;;;-3.16;100.00
46836;BME280;32573;51.290;6.926;2022-12-18T00:24:26;101419.19;;;-3.16;100.00
46836;BME280;32573;51.290;6.926;2022-12-18T00:26:56;101416.75;;;-3.15;100.00
46836;BME280;32573;51.290;6.926;2022-12-18T00:29:26;101414.06;;;-3.16;100.00
46836;BME280;32573;51.290;6.926;2022-12-18T00:31:55;101412.41;;;-3.16;100.00
46836;BME280;32573;51.290;6.926;2022-12-18T00:34:27;101418.59;;;-3.14;100.00
46836;BME280;32573;51.290;6.926;2022-12-18T00:36:57;101411.50;;;-3.16;100.00
46836;BME280;32573;51.290;6.926;2022-12-18T00:39:27;101408.19;;;-3.15;100.00
46836;BME280;32573;51.290;6.926;2022-12-18T00:41:56;101411.50;;;-3.16;100.00
46836;BME280;32573;51.290;6.926;2022-12-18T00:44:43;101396.88;;;-3.17;100.00
46836;BME280;32573;51.290;6.926;2022-12-18T00:47:13;101385.00;;;-3.17;100.00
46836;BME280;32573;51.290;6.926;2022-12-18T00:49:46;101388.28;;;-3.18;100.00
46836;BME280;32573;51.290;6.926;2022-12-18T00:52:16;101400.34;;;-3.17;100.00
46836;BME280;32573;51.290;6.926;2022-12-18T00:54:46;101398.53;;;-3.18;100.00
46836;BME280;32573;51.290;6.926;2022-12-18T00:57:15;101411.31;;;-3.18;100.00
46836;BME280;32573;51.290;6.926;2022-12-18T00:59:45;101410.59;;;-3.17;100.00
46836;BME280;32573;51.290;6.926;2022-12-18T01:02:14;101402.91;;;-3.17;100.00
46836;BME280;32573;51.290;6.926;2022-12-18T01:04:46;101411.50;;;-3.16;100.00
46836;BME280;32573;51.290;6.926;2022-12-18T01:07:20;101410.59;;;-3.17;100.00
46836;BME280;32573;51.290;6.926;2022-12-18T01:09:48;101411.50;;;-3.16;100.00
46836;BME280;32573;51.290;6.926;2022-12-18T01:12:19;101414.06;;;-3.16;100.00
46836;BME280;32573;51.290;6.926;2022-12-18T01:14:51;101424.13;;;-3.18;100.00
46836;BME280;32573;51.290;6.926;2022-12-18T01:17:21;101416.44;;;-3.18;100.00
46836;BME280;32573;51.290;6.926;2022-12-18T01:19:51;101404.53;;;-3.17;100.00
46836;BME280;32573;51.290;6.926;2022-12-18T01:22:20;101407.88;;;-3.18;100.00
46836;BME280;32573;51.290;6.926;2022-12-18T01:24:50;101406.06;;;-3.19;100.00
46836;BME280;32573;51.290;6.926;2022-12-18T01:27:22;101411.91;;;-3.20;100.00
46836;BME280;32573;51.290;6.926;2022-12-18T01:29:52;101405.00;;;-3.21;100.00
46836;BME280;32573;51.290;6.926;2022-12-18T01:32:22;101414.34;;;-3.22;100.00
46836;BME280;32573;51.290;6.926;2022-12-18T01:34:53;101409.06;;;-3.23;100.00
46836;BME280;32573;51.290;6.926;2022-12-18T01:37:23;101407.22;;;-3.25;100.00
46836;BME280;32573;51.290;6.926;2022-12-18T01:39:55;101402.88;;;-3.26;100.00
46836;BME280;32573;51.290;6.926;2022-12-18T01:42:24;101399.25;;;-3.28;100.00
46836;BME280;32573;51.290;6.926;2022-12-18T01:45:01;101401.78;;;-3.28;100.00
46836;BME280;32573;51.290;6.926;2022-12-18T01:47:38;101403.63;;;-3.27;100.00
46836;BME280;32573;51.290;6.926;2022-12-18T01:50:13;101391.72;;;-3.26;100.00
46836;BME280;32573;51.290;6.926;2022-12-18T01:52:47;101388.28;;;-3.27;100.00
46836;BME280;32573;51.290;6.926;2022-12-18T01:55:19;101390.97;;;-3.25;100.00
46836;BME280;32573;51.290;6.926;2022-12-18T01:57:51;101395.19;;;-3.26;100.00
46836;BME280;32573;51.290;6.926;2022-12-18T02:00:23;101397.91;;;-3.24;100.00
46836;BME280;32573;51.290;6.926;2022-12-18T02:02:54;101398.81;;;-3.23;100.00
46836;BME280;32573;51.290;6.926;2022-12-18T02:05:38;101400.47;;;-3.24;100.00
46836;BME280;32573;51.290;6.926;2022-12-18T02:08:12;101407.22;;;-3.25;100.00
46836;BME280;32573;51.290;6.926;2022-12-18T02:10:50;101409.06;;;-3.23;100.00
46836;BME280;32573;51.290;6.926;2022-12-18T02:13:30;101405.72;;;-3.22;100.00
46836;BME280;32573;51.290;6.926;2022-12-18T02:16:07;101407.56;;;-3.21;100.00
46836;BME280;32573;51.290;6.926;2022-12-18T02:18:42;101399.13;;;-3.20;100.00
46836;BME280;32573;51.290;6.926;2022-12-18T02:21:31;101411.03;;;-3.21;100.00
46836;BME280;32573;51.290;6.926;2022-12-18T02:24:17;101406.81;;;-3.20;100.00
46836;BME280;32573;51.290;6.926;2022-12-18T02:26:50;101409.22;;;-3.22;100.00
46836;BME280;32573;51.290;6.926;2022-12-18T02:29:29;101400.03;;;-3.20;100.00
46836;BME280;32573;51.290;6.926;2022-12-18T02:32:04;101398.38;;;-3.19;100.00
46836;BME280;32573;51.290;6.926;2022-12-18T02:34:39;101390.72;;;-3.19;100.00
46836;BME280;32573;51.290;6.926;2022-12-18T02:37:16;101390.72;;;-3.19;100.00
46836;BME280;32573;51.290;6.926;2022-12-18T02:39:51;101386.50;;;-3.19;100.00
46836;BME280;32573;51.290;6.926;2022-12-18T02:42:26;101386.50;;;-3.19;100.00
46836;BME280;32573;51.290;6.926;2022-12-18T02:44:58;101385.59;;;-3.19;100.00
46836;BME280;32573;51.290;6.926;2022-12-18T02:47:29;101390.72;;;-3.19;100.00
46836;BME280;32573;51.290;6.926;2022-12-18T02:50:10;101395.06;;;-3.18;100.00
46836;BME280;32573;51.290;6.926;2022-12-18T02:52:53;101396.72;;;-3.19;100.00
46836;BME280;32573;51.290;6.926;2022-12-18T02:55:34;101387.38;;;-3.18;100.00
46836;BME280;32573;51.290;6.926;2022-12-18T02:58:17;101399.44;;;-3.17;100.00
46836;BME280;32573;51.290;6.926;2022-12-18T03:00:58;101386.63;;;-3.17;100.00
46836;BME280;32573;51.290;6.926;2022-12-18T03:03:35;101378.06;;;-3.18;100.00
46836;BME280;32573;51.290;6.926;2022-12-18T03:06:13;101387.38;;;-3.18;100.00
46836;BME280;32573;51.290;6.926;2022-12-18T03:08:52;101383.16;;;-3.18;100.00
46836;BME280;32573;51.290;6.926;2022-12-18T03:11:28;101386.63;;;-3.17;100.00
46836;BME280;32573;51.290;6.926;2022-12-18T03:14:23;101383.16;;;-3.18;100.00
46836;BME280;32573;51.290;6.926;2022-12-18T03:17:00;101386.50;;;-3.19;100.00
46836;BME280;32573;51.290;6.926;2022-12-18T03:19:33;101372.94;;;-3.18;100.00
46836;BME280;32573;51.290;6.926;2022-12-18T03:22:07;101370.22;;;-3.19;100.00
46836;BME280;32573;51.290;6.926;2022-12-18T03:24:46;101369.31;;;-3.20;100.00
46836;BME280;32573;51.290;6.926;2022-12-18T03:27:19;101367.69;;;-3.19;100.00
46836;BME280;32573;51.290;6.926;2022-12-18T03:30:03;101364.19;;;-3.20;100.00
46836;BME280;32573;51.290;6.926;2022-12-18T03:32:44;101365.13;;;-3.19;100.00
46836;BME280;32573;51.290;6.926;2022-12-18T03:35:29;101365.13;;;-3.19;100.00
46836;BME280;32573;51.290;6.926;2022-12-18T03:38:03;101366.00;;;-3.19;100.00
46836;BME280;32573;51.290;6.926;2022-12-18T03:40:42;101367.69;;;-3.19;100.00
46836;BME280;32573;51.290;6.926;2022-12-18T03:43:20;101366.91;;;-3.18;100.00
46836;BME280;32573;51.290;6.926;2022-12-18T03:46:02;101370.53;;;-3.16;100.00
46836;BME280;32573;51.290;6.926;2022-12-18T03:48:40;101363.00;;;-3.15;100.00
46836;BME280;32573;51.290;6.926;2022-12-18T03:51:20;101367.38;;;-3.14;100.00
46836;BME280;32573;51.290;6.926;2022-12-18T03:53:57;101364.22;;;-3.11;100.00
46836;BME280;32573;51.290;6.926;2022-12-18T03:56:35;101360.91;;;-3.10;100.00
46836;BME280;32573;51.290;6.926;2022-12-18T03:59:12;101354.28;;;-3.08;100.00
46836;BME280;32573;51.290;6.926;2022-12-18T04:01:51;101353.69;;;-3.06;100.00
46836;BME280;32573;51.290;6.926;2022-12-18T04:04:24;101352.19;;;-3.04;100.00
46836;BME280;32573;51.290;6.926;2022-12-18T04:06:56;101347.97;;;-3.03;100.00
46836;BME280;32573;51.290;6.926;2022-12-18T04:09:31;101354.34;;;-2.99;100.00
46836;BME280;32573;51.290;6.926;2022-12-18T04:12:02;101352.81;;;-2.97;100.00
46836;BME280;32573;51.290;6.926;2022-12-18T04:14:32;101347.09;;;-2.95;100.00
46836;BME280;32573;51.290;6.926;2022-12-18T04:17:08;101346.34;;;-2.94;100.00
46836;BME280;32573;51.290;6.926;2022-12-18T04:19:37;101338.97;;;-2.91;100.00
46836;BME280;32573;51.290;6.926;2022-12-18T04:22:13;101343.50;;;-2.88;100.00
46836;BME280;32573;51.290;6.926;2022-12-18T04:24:47;101340.03;;;-2.89;100.00
46836;BME280;32573;51.290;6.926;2022-12-18T04:27:29;101339.28;;;-2.88;100.00
46836;BME280;32573;51.290;6.926;2022-12-18T04:29:59;101348.03;;;-2.86;100.00
46836;BME280;32573;51.290;6.926;2022-12-18T04:32:33;101349.81;;;-2.85;100.00
46836;BME280;32573;51.290;6.926;2022-12-18T04:35:03;101346.53;;;-2.84;100.00
46836;BME280;32573;51.290;6.926;2022-12-18T04:37:35;101343.19;;;-2.83;100.00
46836;BME280;32573;51.290;6.926;2022-12-18T04:40:05;101342.47;;;-2.82;100.00
46836;BME280;32573;51.290;6.926;2022-12-18T04:42:40;101339.13;;;-2.80;100.00
46836;BME280;32573;51.290;6.926;2022-12-18T04:45:13;101332.34;;;-2.80;100.00
46836;BME280;32573;51.290;6.926;2022-12-18T04:47:44;101334.19;;;-2.79;100.00
46836;BME280;32573;51.290;6.926;2022-12-18T04:50:14;101332.50;;;-2.78;100.00
46836;BME280;32573;51.290;6.926;2022-12-18T04:52:45;101329.94;;;-2.78;100.00
46836;BME280;32573;51.290;6.926;2022-12-18T04:55:14;101336.13;;;-2.76;100.00
46836;BME280;32573;51.290;6.926;2022-12-18T04:57:44;101332.50;;;-2.78;100.00
46836;BME280;32573;51.290;6.926;2022-12-18T05:00:16;101328.44;;;-2.76;100.00
46836;BME280;32573;51.290;6.926;2022-12-18T05:02:47;101325.13;;;-2.75;100.00
46836;BME280;32573;51.290;6.926;2022-12-18T05:05:17;101321.84;;;-2.74;100.00
46836;BME280;32573;51.290;6.926;2022-12-18T05:07:47;101313.38;;;-2.73;100.00
46836;BME280;32573;51.290;6.926;2022-12-18T05:10:17;101319.56;;;-2.71;100.00
46836;BME280;32573;51.290;6.926;2022-12-18T05:12:48;101316.25;;;-2.70;100.00
46836;BME280;32573;51.290;6.926;2022-12-18T05:15:33;101314.75;;;-2.68;100.00
46836;BME280;32573;51.290;6.926;2022-12-18T05:18:05;101316.69;;;-2.66;100.00
46836;BME280;32573;51.290;6.926;2022-12-18T05:20:35;101311.75;;;-2.64;100.00
46836;BME280;32573;51.290;6.926;2022-12-18T05:23:04;101319.44;;;-2.64;100.00
46836;BME280;32573;51.290;6.926;2022-12-18T05:25:34;101323.94;;;-2.62;100.00
46836;BME280;32573;51.290;6.926;2022-12-18T05:28:06;101319.72;;;-2.61;100.00
46836;BME280;32573;51.290;6.926;2022-12-18T05:30:35;101313.81;;;-2.60;100.00
46836;BME280;32573;51.290;6.926;2022-12-18T05:33:10;101312.19;;;-2.59;100.00
46836;BME280;32573;51.290;6.926;2022-12-18T05:35:42;101310.38;;;-2.61;100.00
46836;BME280;32573;51.290;6.926;2022-12-18T05:38:14;101313.81;;;-2.60;100.00
46836;BME280;32573;51.290;6.926;2022-12-18T05:40:44;101318.22;;;-2.59;100.00
46836;BME280;32573;51.290;6.926;2022-12-18T05:43:15;101314.88;;;-2.58;100.00
46836;BME280;32573;51.290;6.926;2022-12-18T05:45:51;101320.91;;;-2.57;100.00
46836;BME280;32573;51.290;6.926;2022-12-18T05:48:23;101321.84;;;-2.57;100.00
46836;BME280;32573;51.290;6.926;2022-12-18T05:50:52;101332.38;;;-2.54;100.00
46836;BME280;32573;51.290;6.926;2022-12-18T05:53:21;101330.72;;;-2.53;100.00
46836;BME280;32573;51.290;6.926;2022-12-18T05:55:51;101336.00;;;-2.52;100.00
46836;BME280;32573;51.290;6.926;2022-12-18T05:58:21;101342.94;;;-2.51;100.00
46836;BME280;32573;51.290;6.926;2022-12-18T06:00:51;101346.56;;;-2.49;100.00
46836;BME280;32573;51.290;6.926;2022-12-18T06:03:20;101357.09;;;-2.46;100.00
46836;BME280;32573;51.290;6.926;2022-12-18T06:05:51;101358.00;;;-2.45;100.00
46836;BME280;32573;51.290;6.926;2022-12-18T06:08:21;101364.03;;;-2.45;100.00
46836;BME280;32573;51.290;6.926;2022-12-18T06:10:52;101351.38;;;-2.43;100.00
46836;BME280;32573;51.290;6.926;2022-12-18T06:13:21;101359.22;;;-2.42;100.00
46836;BME280;32573;51.290;6.926;2022-12-18T06:15:51;101362.53;;;-2.43;100.00
46836;BME280;32573;51.290;6.926;2022-12-18T06:18:20;101380.63;;;-2.41;100.00
46836;BME280;32573;51.290;6.926;2022-12-18T06:20:56;101381.53;;;-2.41;100.00
46836;BME280;32573;51.290;6.926;2022-12-18T06:23:26;101384.09;;;-2.41;100.00
46836;BME280;32573;51.290;6.926;2022-12-18T06:25:56;101386.66;;;-2.41;100.00
46836;BME280;32573;51.290;6.926;2022-12-18T06:28:25;101381.53;;;-2.41;100.00
46836;BME280;32573;51.290;6.926;2022-12-18T06:30:55;101371.28;;;-2.41;100.00
46836;BME280;32573;51.290;6.926;2022-12-18T06:33:30;101369.59;;;-2.40;100.00
46836;BME280;32573;51.290;6.926;2022-12-18T06:36:01;101361.03;;;-2.41;100.00
46836;BME280;32573;51.290;6.926;2022-12-18T06:38:31;101366.16;;;-2.41;100.00
46836;BME280;32573;51.290;6.926;2022-12-18T06:41:06;101357.41;;;-2.43;100.00
46836;BME280;32573;51.290;6.926;2022-12-18T06:43:37;101354.09;;;-2.42;100.00
46836;BME280;32573;51.290;6.926;2022-12-18T06:46:10;101347.91;;;-2.44;100.00
46836;BME280;32573;51.290;6.926;2022-12-18T06:48:41;101337.78;;;-2.42;100.00
46836;BME280;32573;51.290;6.926;2022-12-18T06:51:16;101338.72;;;-2.42;100.00
46836;BME280;32573;51.290;6.926;2022-12-18T06:53:46;101337.94;;;-2.41;100.00
46836;BME280;32573;51.290;6.926;2022-12-18T06:56:17;101332.09;;;-2.40;100.00
46836;BME280;32573;51.290;6.926;2022-12-18T06:58:51;101327.88;;;-2.39;100.00
46836;BME280;32573;51.290;6.926;2022-12-18T07:01:21;101332.38;;;-2.36;100.00
46836;BME280;32573;51.290;6.926;2022-12-18T07:03:53;101321.38;;;-2.35;100.00
46836;BME280;32573;51.290;6.926;2022-12-18T07:06:25;101317.28;;;-2.33;100.00
46836;BME280;32573;51.290;6.926;2022-12-18T07:08:55;101312.34;;;-2.32;100.00
46836;BME280;32573;51.290;6.926;2022-12-18T07:11:24;101309.16;;;-2.29;100.00
46836;BME280;32573;51.290;6.926;2022-12-18T07:13:55;101305.06;;;-2.27;100.00
46836;BME280;32573;51.290;6.926;2022-12-18T07:16:32;101312.00;;;-2.26;100.00
46836;BME280;32573;51.290;6.926;2022-12-18T07:19:02;101310.50;;;-2.24;100.00
46836;BME280;32573;51.290;6.926;2022-12-18T07:21:32;101314.88;;;-2.23;100.00
46836;BME280;32573;51.290;6.926;2022-12-18T07:24:03;101325.41;;;-2.20;100.00
46836;BME280;32573;51.290;6.926;2022-12-18T07:26:32;101323.91;;;-2.18;100.00
46836;BME280;32573;51.290;6.926;2022-12-18T07:29:02;101324.97;;;-2.16;100.00
46836;BME280;32573;51.290;6.926;2022-12-18T07:31:32;101326.94;;;-2.13;100.00
46836;BME280;32573;51.290;6.926;2022-12-18T07:34:05;101311.69;;;-2.12;100.00
46836;BME280;32573;51.290;6.926;2022-12-18T07:36:40;101313.06;;;-2.07;100.00
46836;BME280;32573;51.290;6.926;2022-12-18T07:39:11;101305.34;;;-2.07;100.00
46836;BME280;32573;51.290;6.926;2022-12-18T07:41:43;101288.44;;;-2.05;100.00
46836;BME280;32573;51.290;6.926;2022-12-18T07:44:33;101300.81;;;-2.01;100.00
46836;BME280;32573;51.290;6.926;2022-12-18T07:47:04;101311.06;;;-2.01;100.00
46836;BME280;32573;51.290;6.926;2022-12-18T07:49:39;101307.75;;;-2.00;100.00
46836;BME280;32573;51.290;6.926;2022-12-18T07:52:11;101301.84;;;-1.99;100.00
46836;BME280;32573;51.290;6.926;2022-12-18T07:54:44;101304.59;;;-1.97;100.00
46836;BME280;32573;51.290;6.926;2022-12-18T07:57:17;101310.59;;;-1.97;100.00
46836;BME280;32573;51.290;6.926;2022-12-18T08:00:10;101309.09;;;-1.94;100.00
46836;BME280;32573;51.290;6.926;2022-12-18T08:02:41;101307.56;;;-1.92;100.00
46836;BME280;32573;51.290;6.926;2022-12-18T08:05:11;101309.38;;;-1.91;100.00
46836;BME280;32573;51.290;6.926;2022-12-18T08:07:46;101305.31;;;-1.89;100.00
46836;BME280;32573;51.290;6.926;2022-12-18T08:10:16;101290.81;;;-1.89;100.00
46836;BME280;32573;51.290;6.926;2022-12-18T08:12:49;101297.00;;;-1.87;100.00
46836;BME280;32573;51.290;6.926;2022-12-18T08:15:18;101289.44;;;-1.85;100.00
46836;BME280;32573;51.290;6.926;2022-12-18T08:17:47;101278.56;;;-1.83;100.00
46836;BME280;32573;51.290;6.926;2022-12-18T08:20:17;101269.19;;;-1.82;100.00
46836;BME280;32573;51.290;6.926;2022-12-18T08:22:51;101274.66;;;-1.79;100.00
46836;BME280;32573;51.290;6.926;2022-12-18T08:25:21;101270.56;;;-1.77;100.00
46836;BME280;32573;51.290;6.926;2022-12-18T08:27:54;101264.06;;;-1.74;100.00
46836;BME280;32573;51.290;6.926;2022-12-18T08:30:24;101248.81;;;-1.72;100.00
46836;BME280;32573;51.290;6.926;2022-12-18T08:32:54;101254.22;;;-1.69;100.00
46836;BME280;32573;51.290;6.926;2022-12-18T08:35:23;101248.59;;;-1.65;100.00
46836;BME280;32573;51.290;6.926;2022-12-18T08:38:16;101234.56;;;-1.60;100.00
46836;BME280;32573;51.290;6.926;2022-12-18T08:40:48;101223.81;;;-1.56;100.00
46836;BME280;32573;51.290;6.926;2022-12-18T08:43:18;101232.84;;;-1.50;100.00
46836;BME280;32573;51.290;6.926;2022-12-18T08:46:06;101238.25;;;-1.47;100.00
46836;BME280;32573;51.290;6.926;2022-12-18T08:48:37;101254.09;;;-1.43;100.00
46836;BME280;32573;51.290;6.926;2022-12-18T08:51:06;101247.59;;;-1.39;100.00
46836;BME280;32573;51.290;6.926;2022-12-18T08:53:38;101259.91;;;-1.35;100.00
46836;BME280;32573;51.290;6.926;2022-12-18T08:56:08;101254.47;;;-1.29;100.00
46836;BME280;32573;51.290;6.926;2022-12-18T08:58:38;101257.44;;;-1.25;100.00
46836;BME280;32573;51.290;6.926;2022-12-18T09:01:10;101262.88;;;-1.22;100.00
46836;BME280;32573;51.290;6.926;2022-12-18T09:03:41;101265.09;;;-1.16;100.00
46836;BME280;32573;51.290;6.926;2022-12-18T09:06:13;101256.00;;;-1.13;100.00
46836;BME280;32573;51.290;6.926;2022-12-18T09:08:48;101247.06;;;-1.08;100.00
46836;BME280;32573;51.290;6.926;2022-12-18T09:11:21;101245.81;;;-1.02;100.00
46836;BME280;32573;51.290;6.926;2022-12-18T09:13:51;101234.31;;;-0.97;100.00
46836;BME280;32573;51.290;6.926;2022-12-18T09:16:23;101231.25;;;-0.93;100.00
46836;BME280;32573;51.290;6.926;2022-12-18T09:18:59;101233.34;;;-0.89;100.00
46836;BME280;32573;51.290;6.926;2022-12-18T09:21:32;101219.97;;;-0.85;100.00
46836;BME280;32573;51.290;6.926;2022-12-18T09:24:06;101229.03;;;-0.80;100.00
46836;BME280;32573;51.290;6.926;2022-12-18T09:26:35;101229.31;;;-0.77;100.00
46836;BME280;32573;51.290;6.926;2022-12-18T09:29:06;101223.81;;;-0.71;100.00
46836;BME280;32573;51.290;6.926;2022-12-18T09:31:38;101218.19;;;-0.67;100.00
46836;BME280;32573;51.290;6.926;2022-12-18T09:34:08;101213.44;;;-0.62;100.00
46836;BME280;32573;51.290;6.926;2022-12-18T09:36:38;101214.00;;;-0.56;100.00
46836;BME280;32573;51.290;6.926;2022-12-18T09:39:09;101218.78;;;-0.51;100.00
46836;BME280;32573;51.290;6.926;2022-12-18T09:41:43;101225.22;;;-0.46;100.00
46836;BME280;32573;51.290;6.926;2022-12-18T09:44:20;101231.03;;;-0.38;100.00
46836;BME280;32573;51.290;6.926;2022-12-18T09:47:07;101221.31;;;-0.32;100.00
46836;BME280;32573;51.290;6.926;2022-12-18T09:49:42;101221.84;;;-0.26;100.00
46836;BME280;32573;51.290;6.926;2022-12-18T09:52:17;101215.44;;;-0.20;100.00
46836;BME280;32573;51.290;6.926;2022-12-18T09:54:53;101215.97;;;-0.14;100.00
46836;BME280;32573;51.290;6.926;2022-12-18T09:57:53;101215.59;;;-0.09;100.00
46836;BME280;32573;51.290;6.926;2022-12-18T10:00:25;101196.19;;;-0.05;100.00
46836;BME280;32573;51.290;6.926;2022-12-18T10:03:00;101187.22;;;0.00;100.00
46836;BME280;32573;51.290;6.926;2022-12-18T10:05:37;101198.81;;;0.05;100.00
46836;BME280;32573;51.290;6.926;2022-12-18T10:08:13;101189.66;;;0.09;100.00
46836;BME280;32573;51.290;6.926;2022-12-18T10:10:53;101188.25;;;0.12;100.00
46836;BME280;32573;51.290;6.926;2022-12-18T10:13:31;101192.09;;;0.17;100.00
46836;BME280;32573;51.290;6.926;2022-12-18T10:16:13;101183.88;;;0.21;100.00
46836;BME280;32573;51.290;6.926;2022-12-18T10:19:02;101187.75;;;0.27;100.00
46836;BME280;32573;51.290;6.926;2022-12-18T10:21:41;101188.78;;;0.29;100.00
46836;BME280;32573;51.290;6.926;2022-12-18T10:24:17;101184.94;;;0.34;100.00
46836;BME280;32573;51.290;6.926;2022-12-18T10:26:55;101185.34;;;0.38;100.00
46836;BME280;32573;51.290;6.926;2022-12-18T10:29:31;101175.28;;;0.41;100.00
46836;BME280;32573;51.290;6.926;2022-12-18T10:32:04;101165.38;;;0.46;100.00
46836;BME280;32573;51.290;6.926;2022-12-18T10:34:33;101161.50;;;0.51;100.00
46836;BME280;32573;51.290;6.926;2022-12-18T10:37:11;101162.66;;;0.55;100.00
46836;BME280;32573;51.290;6.926;2022-12-18T10:39:44;101159.59;;;0.59;100.00
46836;BME280;32573;51.290;6.926;2022-12-18T10:42:21;101165.13;;;0.63;100.00
46836;BME280;32573;51.290;6.926;2022-12-18T10:45:01;101157.88;;;0.70;100.00
46836;BME280;32573;51.290;6.926;2022-12-18T10:47:32;101168.47;;;0.73;100.00
46836;BME280;32573;51.290;6.926;2022-12-18T10:50:03;101152.47;;;0.77;100.00
46836;BME280;32573;51.290;6.926;2022-12-18T10:52:37;101153.75;;;0.82;100.00
46836;BME280;32573;51.290;6.926;2022-12-18T10:55:17;101149.78;;;0.85;100.00
46836;BME280;32573;51.290;6.926;2022-12-18T10:57:51;101145.75;;;0.89;100.00
46836;BME280;32573;51.290;6.926;2022-12-18T11:00:26;101134.94;;;0.93;100.00
46836;BME280;32573;51.290;6.926;2022-12-18T11:02:56;101127.44;;;0.96;100.00
46836;BME280;32573;51.290;6.926;2022-12-18T11:05:29;101119.22;;;1.00;100.00
46836;BME280;32573;51.290;6.926;2022-12-18T11:08:01;101115.19;;;1.04;100.00
46836;BME280;32573;51.290;6.926;2022-12-18T11:10:33;101111.97;;;1.06;100.00
46836;BME280;32573;51.290;6.926;2022-12-18T11:13:16;101118.28;;;1.10;100.00
46836;BME280;32573;51.290;6.926;2022-12-18T11:15:48;101112.47;;;1.13;100.00
46836;BME280;32573;51.290;6.926;2022-12-18T11:18:22;101121.19;;;1.15;100.00
46836;BME280;32573;51.290;6.926;2022-12-18T11:20:56;101126.63;;;1.18;100.00
46836;BME280;32573;51.290;6.926;2022-12-18T11:23:27;101122.47;;;1.20;100.00
46836;BME280;32573;51.290;6.926;2022-12-18T11:25:58;101118.47;;;1.23;100.00
46836;BME280;32573;51.290;6.926;2022-12-18T11:28:40;101125.81;;;1.29;100.00
46836;BME280;32573;51.290;6.926;2022-12-18T11:31:23;101115.72;;;1.32;100.00
46836;BME280;32573;51.290;6.926;2022-12-18T11:34:03;101105.78;;;1.37;100.00
46836;BME280;32573;51.290;6.926;2022-12-18T11:37:00;101084.50;;;1.39;100.00
46836;BME280;32573;51.290;6.926;2022-12-18T11:39:36;101074.44;;;1.42;100.00
46836;BME280;32573;51.290;6.926;2022-12-18T11:42:12;101058.97;;;1.42;100.00
46836;BME280;32573;51.290;6.926;2022-12-18T11:44:55;101059.06;;;1.44;100.00
46836;BME280;32573;51.290;6.926;2022-12-18T11:47:33;101064.38;;;1.45;100.00
46836;BME280;32573;51.290;6.926;2022-12-18T11:50:13;101065.41;;;1.47;100.00
46836;BME280;32573;51.290;6.926;2022-12-18T11:52:44;101064.59;;;1.48;100.00
46836;BME280;32573;51.290;6.926;2022-12-18T11:55:32;101067.31;;;1.50;100.00
46836;BME280;32573;51.290;6.926;2022-12-18T11:58:12;101042.41;;;1.50;100.00
46836;BME280;32573;51.290;6.926;2022-12-18T12:00:50;101056.34;;;1.53;100.00
46836;BME280;32573;51.290;6.926;2022-12-18T12:03:39;101052.81;;;1.52;100.00
46836;BME280;32573;51.290;6.926;2022-12-18T12:06:21;101065.84;;;1.54;100.00
46836;BME280;32573;51.290;6.926;2022-12-18T12:09:00;101059.00;;;1.54;100.00
46836;BME280;32573;51.290;6.926;2022-12-18T12:11:41;101065.06;;;1.55;100.00
46836;BME280;32573;51.290;6.926;2022-12-18T12:14:39;101072.03;;;1.56;100.00
46836;BME280;32573;51.290;6.926;2022-12-18T12:17:19;101070.50;;;1.58;100.00
46836;BME280;32573;51.290;6.926;2022-12-18T12:19:57;101060.94;;;1.57;100.00
46836;BME280;32573;51.290;6.926;2022-12-18T12:22:40;101071.38;;;1.58;100.00
46836;BME280;32573;51.290;6.926;2022-12-18T12:25:25;101062.84;;;1.59;100.00
46836;BME280;32573;51.290;6.926;2022-12-18T12:28:05;101057.69;;;1.59;100.00
46836;BME280;32573;51.290;6.926;2022-12-18T12:30:54;101046.47;;;1.59;100.00
46836;BME280;32573;51.290;6.926;2022-12-18T12:33:37;101034.47;;;1.59;100.00
46836;BME280;32573;51.290;6.926;2022-12-18T12:36:21;101036.94;;;1.58;100.00
46836;BME280;32573;51.290;6.926;2022-12-18T12:38:58;101041.84;;;1.55;100.00
46836;BME280;32573;51.290;6.926;2022-12-18T12:41:32;101043.44;;;1.53;100.00
46836;BME280;32573;51.290;6.926;2022-12-18T12:44:24;101039.84;;;1.50;100.00
46836;BME280;32573;51.290;6.926;2022-12-18T12:47:06;101036.34;;;1.50;100.00
46836;BME280;32573;51.290;6.926;2022-12-18T12:49:46;101034.66;;;1.50;100.00
46836;BME280;32573;51.290;6.926;2022-12-18T12:52:26;101032.84;;;1.49;100.00
46836;BME280;32573;51.290;6.926;2022-12-18T12:55:02;101028.50;;;1.48;100.00
46836;BME280;32573;51.290;6.926;2022-12-18T12:57:45;101027.47;;;1.46;100.00
46836;BME280;32573;51.290;6.926;2022-12-18T13:00:19;101039.34;;;1.44;100.00
46836;BME280;32573;51.290;6.926;2022-12-18T13:02:52;101050.44;;;1.43;100.00
46836;BME280;32573;51.290;6.926;2022-12-18T13:05:34;101046.06;;;1.42;100.00
46836;BME280;32573;51.290;6.926;2022-12-18T13:08:09;101048.53;;;1.41;100.00
46836;BME280;32573;51.290;6.926;2022-12-18T13:10:43;101055.09;;;1.37;100.00
46836;BME280;32573;51.290;6.926;2022-12-18T13:13:17;101046.38;;;1.35;100.00
46836;BME280;32573;51.290;6.926;2022-12-18T13:16:09;101049.72;;;1.34;100.00
46836;BME280;32573;51.290;6.926;2022-12-18T13:18:48;101042.63;;;1.32;100.00
46836;BME280;32573;51.290;6.926;2022-12-18T13:21:25;101038.13;;;1.29;100.00